sensor_id;sensor_type;location;lat;lon;timestamp;P1;durP1;ratioP1;P2;durP2;ratioP2
5191;SDS011;2615;44.524;11.284;2023-09-07T00:01:51;4.90;;;3.17;;
5191;SDS011;2615;44.524;11.284;2023-09-07T00:04:19;5.20;;;2.93;;
5191;SDS011;2615;44.524;11.284;2023-09-07T00:06:50;29.40;;;4.10;;
5191;SDS011;2615;44.524;11.284;2023-09-07T00:09:19;8.10;;;3.40;;
5191;SDS011;2615;44.524;11.284;2023-09-07T00:11:48;8.00;;;2.70;;
5191;SDS011;2615;44.524;11.284;2023-09-07T00:14:16;3.80;;;2.30;;
5191;SDS011;2615;44.524;11.284;2023-09-07T00:16:44;13.67;;;3.00;;
5191;SDS011;2615;44.524;11.284;2023-09-07T00:19:12;8.63;;;3.17;;
5191;SDS011;2615;44.524;11.284;2023-09-07T00:21:41;9.10;;;3.50;;
5191;SDS011;2615;44.524;11.284;2023-09-07T00:24:10;5.63;;;3.30;;
5191;SDS011;2615;44.524;11.284;2023-09-07T00:26:38;4.27;;;2.50;;
5191;SDS011;2615;44.524;11.284;2023-09-07T00:29:06;4.43;;;2.70;;
5191;SDS011;2615;44.524;11.284;2023-09-07T00:31:35;3.73;;;2.50;;
5191;SDS011;2615;44.524;11.284;2023-09-07T00:34:03;4.70;;;2.70;;
5191;SDS011;2615;44.524;11.284;2023-09-07T00:36:31;5.17;;;3.03;;
5191;SDS011;2615;44.524;11.284;2023-09-07T00:38:59;3.70;;;2.53;;
5191;SDS011;2615;44.524;11.284;2023-09-07T00:41:29;4.33;;;3.33;;
5191;SDS011;2615;44.524;11.284;2023-09-07T00:43:57;4.30;;;2.30;;
5191;SDS011;2615;44.524;11.284;2023-09-07T00:46:25;4.90;;;3.30;;
5191;SDS011;2615;44.524;11.284;2023-09-07T00:48:53;5.20;;;3.00;;
5191;SDS011;2615;44.524;11.284;2023-09-07T00:51:23;3.50;;;2.17;;
5191;SDS011;2615;44.524;11.284;2023-09-07T00:53:51;13.73;;;3.13;;
5191;SDS011;2615;44.524;11.284;2023-09-07T00:56:20;5.60;;;2.50;;
5191;SDS011;2615;44.524;11.284;2023-09-07T00:58:50;6.13;;;2.73;;
5191;SDS011;2615;44.524;11.284;2023-09-07T01:01:20;5.20;;;2.87;;
5191;SDS011;2615;44.524;11.284;2023-09-07T01:03:50;4.23;;;2.40;;
5191;SDS011;2615;44.524;11.284;2023-09-07T01:06:20;3.33;;;2.03;;
5191;SDS011;2615;44.524;11.284;2023-09-07T01:08:57;7.50;;;2.70;;
5191;SDS011;2615;44.524;11.284;2023-09-07T01:11:35;3.93;;;2.40;;
5191;SDS011;2615;44.524;11.284;2023-09-07T01:14:05;5.10;;;3.17;;
5191;SDS011;2615;44.524;11.284;2023-09-07T01:16:33;4.20;;;2.37;;
5191;SDS011;2615;44.524;11.284;2023-09-07T01:19:04;4.57;;;2.97;;
5191;SDS011;2615;44.524;11.284;2023-09-07T01:21:36;3.03;;;2.00;;
5191;SDS011;2615;44.524;11.284;2023-09-07T01:24:06;5.53;;;2.20;;
5191;SDS011;2615;44.524;11.284;2023-09-07T01:26:35;4.60;;;3.40;;
5191;SDS011;2615;44.524;11.284;2023-09-07T01:29:05;4.00;;;2.70;;
5191;SDS011;2615;44.524;11.284;2023-09-07T01:31:34;6.33;;;3.80;;
5191;SDS011;2615;44.524;11.284;2023-09-07T01:34:03;4.80;;;2.97;;
5191;SDS011;2615;44.524;11.284;2023-09-07T01:36:32;16.53;;;3.60;;
5191;SDS011;2615;44.524;11.284;2023-09-07T01:39:02;3.30;;;2.30;;
5191;SDS011;2615;44.524;11.284;2023-09-07T01:41:32;4.30;;;2.87;;
5191;SDS011;2615;44.524;11.284;2023-09-07T01:44:01;5.10;;;2.47;;
5191;SDS011;2615;44.524;11.284;2023-09-07T01:46:29;5.10;;;3.33;;
5191;SDS011;2615;44.524;11.284;2023-09-07T01:48:57;4.53;;;2.73;;
5191;SDS011;2615;44.524;11.284;2023-09-07T01:51:25;6.13;;;2.37;;
5191;SDS011;2615;44.524;11.284;2023-09-07T01:53:54;6.90;;;2.50;;
5191;SDS011;2615;44.524;11.284;2023-09-07T01:56:23;5.40;;;3.30;;
5191;SDS011;2615;44.524;11.284;2023-09-07T01:58:52;3.13;;;2.37;;
5191;SDS011;2615;44.524;11.284;2023-09-07T02:01:23;5.83;;;3.20;;
5191;SDS011;2615;44.524;11.284;2023-09-07T02:03:52;3.80;;;2.80;;
5191;SDS011;2615;44.524;11.284;2023-09-07T02:06:21;4.70;;;2.40;;
5191;SDS011;2615;44.524;11.284;2023-09-07T02:08:49;4.60;;;3.50;;
5191;SDS011;2615;44.524;11.284;2023-09-07T02:11:17;4.27;;;3.00;;
5191;SDS011;2615;44.524;11.284;2023-09-07T02:13:47;6.60;;;3.00;;
5191;SDS011;2615;44.524;11.284;2023-09-07T02:16:15;4.00;;;2.83;;
5191;SDS011;2615;44.524;11.284;2023-09-07T02:18:44;7.50;;;2.57;;
5191;SDS011;2615;44.524;11.284;2023-09-07T02:21:13;5.43;;;2.50;;
5191;SDS011;2615;44.524;11.284;2023-09-07T02:23:41;5.40;;;3.40;;
5191;SDS011;2615;44.524;11.284;2023-09-07T02:26:09;8.97;;;3.20;;
5191;SDS011;2615;44.524;11.284;2023-09-07T02:28:38;4.83;;;3.03;;
5191;SDS011;2615;44.524;11.284;2023-09-07T02:31:07;4.00;;;3.03;;
5191;SDS011;2615;44.524;11.284;2023-09-07T02:33:36;8.30;;;4.17;;
5191;SDS011;2615;44.524;11.284;2023-09-07T02:36:04;4.70;;;2.93;;
5191;SDS011;2615;44.524;11.284;2023-09-07T02:38:32;3.57;;;2.57;;
5191;SDS011;2615;44.524;11.284;2023-09-07T02:41:00;4.30;;;3.00;;
5191;SDS011;2615;44.524;11.284;2023-09-07T02:43:29;4.83;;;3.00;;
5191;SDS011;2615;44.524;11.284;2023-09-07T02:45:57;4.00;;;2.93;;
5191;SDS011;2615;44.524;11.284;2023-09-07T02:48:27;4.47;;;2.83;;
5191;SDS011;2615;44.524;11.284;2023-09-07T02:50:56;4.93;;;2.83;;
5191;SDS011;2615;44.524;11.284;2023-09-07T02:53:25;4.93;;;3.20;;
5191;SDS011;2615;44.524;11.284;2023-09-07T02:55:53;6.40;;;3.27;;
5191;SDS011;2615;44.524;11.284;2023-09-07T02:58:21;4.30;;;2.77;;
5191;SDS011;2615;44.524;11.284;2023-09-07T03:00:50;5.97;;;2.63;;
5191;SDS011;2615;44.524;11.284;2023-09-07T03:03:17;7.20;;;3.53;;
5191;SDS011;2615;44.524;11.284;2023-09-07T03:05:47;3.90;;;2.80;;
5191;SDS011;2615;44.524;11.284;2023-09-07T03:08:15;3.57;;;2.70;;
5191;SDS011;2615;44.524;11.284;2023-09-07T03:10:43;4.57;;;2.70;;
5191;SDS011;2615;44.524;11.284;2023-09-07T03:13:11;3.33;;;2.07;;
5191;SDS011;2615;44.524;11.284;2023-09-07T03:15:39;6.37;;;3.20;;
5191;SDS011;2615;44.524;11.284;2023-09-07T03:18:07;4.30;;;2.70;;
5191;SDS011;2615;44.524;11.284;2023-09-07T03:20:36;4.47;;;2.53;;
5191;SDS011;2615;44.524;11.284;2023-09-07T03:23:06;10.33;;;3.00;;
5191;SDS011;2615;44.524;11.284;2023-09-07T03:25:34;4.33;;;3.10;;
5191;SDS011;2615;44.524;11.284;2023-09-07T03:28:02;5.77;;;2.80;;
5191;SDS011;2615;44.524;11.284;2023-09-07T03:30:31;7.77;;;3.60;;
5191;SDS011;2615;44.524;11.284;2023-09-07T03:33:00;7.40;;;3.50;;
5191;SDS011;2615;44.524;11.284;2023-09-07T03:35:29;5.00;;;3.00;;
5191;SDS011;2615;44.524;11.284;2023-09-07T03:37:57;4.87;;;3.40;;
5191;SDS011;2615;44.524;11.284;2023-09-07T03:40:27;9.67;;;2.87;;
5191;SDS011;2615;44.524;11.284;2023-09-07T03:42:55;5.03;;;3.93;;
5191;SDS011;2615;44.524;11.284;2023-09-07T03:45:23;5.43;;;3.83;;
5191;SDS011;2615;44.524;11.284;2023-09-07T03:47:52;4.63;;;2.67;;
5191;SDS011;2615;44.524;11.284;2023-09-07T03:50:20;4.40;;;2.90;;
5191;SDS011;2615;44.524;11.284;2023-09-07T03:52:48;5.73;;;3.10;;
5191;SDS011;2615;44.524;11.284;2023-09-07T03:55:16;6.50;;;3.90;;
5191;SDS011;2615;44.524;11.284;2023-09-07T03:57:49;8.23;;;3.50;;
5191;SDS011;2615;44.524;11.284;2023-09-07T04:00:17;5.70;;;3.67;;
5191;SDS011;2615;44.524;11.284;2023-09-07T04:02:46;5.50;;;3.30;;
5191;SDS011;2615;44.524;11.284;2023-09-07T04:05:14;5.10;;;2.93;;
5191;SDS011;2615;44.524;11.284;2023-09-07T04:07:43;4.77;;;3.03;;
5191;SDS011;2615;44.524;11.284;2023-09-07T04:10:12;4.60;;;2.77;;
5191;SDS011;2615;44.524;11.284;2023-09-07T04:12:40;5.07;;;3.73;;
5191;SDS011;2615;44.524;11.284;2023-09-07T04:15:10;11.00;;;3.23;;
5191;SDS011;2615;44.524;11.284;2023-09-07T04:17:38;5.03;;;2.80;;
5191;SDS011;2615;44.524;11.284;2023-09-07T04:20:08;6.13;;;3.37;;
5191;SDS011;2615;44.524;11.284;2023-09-07T04:22:38;5.43;;;2.83;;
5191;SDS011;2615;44.524;11.284;2023-09-07T04:25:07;4.80;;;3.50;;
5191;SDS011;2615;44.524;11.284;2023-09-07T04:27:35;4.63;;;3.10;;
5191;SDS011;2615;44.524;11.284;2023-09-07T04:30:04;4.63;;;2.83;;
5191;SDS011;2615;44.524;11.284;2023-09-07T04:32:35;4.07;;;3.03;;
5191;SDS011;2615;44.524;11.284;2023-09-07T04:35:03;8.17;;;3.60;;
5191;SDS011;2615;44.524;11.284;2023-09-07T04:37:32;5.87;;;2.77;;
5191;SDS011;2615;44.524;11.284;2023-09-07T04:40:00;7.10;;;3.10;;
5191;SDS011;2615;44.524;11.284;2023-09-07T04:42:29;5.60;;;2.90;;
5191;SDS011;2615;44.524;11.284;2023-09-07T04:44:57;4.77;;;2.87;;
5191;SDS011;2615;44.524;11.284;2023-09-07T04:47:25;5.30;;;3.00;;
5191;SDS011;2615;44.524;11.284;2023-09-07T04:49:54;4.70;;;2.70;;
5191;SDS011;2615;44.524;11.284;2023-09-07T04:52:23;4.37;;;3.10;;
5191;SDS011;2615;44.524;11.284;2023-09-07T04:54:51;4.27;;;3.50;;
5191;SDS011;2615;44.524;11.284;2023-09-07T04:57:19;5.10;;;3.13;;
5191;SDS011;2615;44.524;11.284;2023-09-07T04:59:47;5.33;;;3.27;;
5191;SDS011;2615;44.524;11.284;2023-09-07T05:02:15;5.00;;;3.70;;
5191;SDS011;2615;44.524;11.284;2023-09-07T05:04:43;4.70;;;3.60;;
5191;SDS011;2615;44.524;11.284;2023-09-07T05:07:13;4.33;;;2.43;;
5191;SDS011;2615;44.524;11.284;2023-09-07T05:09:41;4.80;;;3.17;;
5191;SDS011;2615;44.524;11.284;2023-09-07T05:12:09;6.00;;;2.83;;
5191;SDS011;2615;44.524;11.284;2023-09-07T05:14:38;5.77;;;3.23;;
5191;SDS011;2615;44.524;11.284;2023-09-07T05:17:06;5.00;;;3.00;;
5191;SDS011;2615;44.524;11.284;2023-09-07T05:19:34;5.53;;;3.30;;
5191;SDS011;2615;44.524;11.284;2023-09-07T05:22:02;4.90;;;2.97;;
5191;SDS011;2615;44.524;11.284;2023-09-07T05:24:32;5.33;;;3.07;;
5191;SDS011;2615;44.524;11.284;2023-09-07T05:27:00;3.73;;;2.57;;
5191;SDS011;2615;44.524;11.284;2023-09-07T05:29:29;5.67;;;2.73;;
5191;SDS011;2615;44.524;11.284;2023-09-07T05:31:57;5.00;;;3.50;;
5191;SDS011;2615;44.524;11.284;2023-09-07T05:34:29;4.60;;;2.77;;
5191;SDS011;2615;44.524;11.284;2023-09-07T05:36:57;6.30;;;3.50;;
5191;SDS011;2615;44.524;11.284;2023-09-07T05:39:25;5.33;;;2.90;;
5191;SDS011;2615;44.524;11.284;2023-09-07T05:41:54;5.83;;;3.57;;
5191;SDS011;2615;44.524;11.284;2023-09-07T05:44:22;5.47;;;4.07;;
5191;SDS011;2615;44.524;11.284;2023-09-07T05:46:51;5.53;;;3.37;;
5191;SDS011;2615;44.524;11.284;2023-09-07T05:49:20;6.73;;;3.80;;
5191;SDS011;2615;44.524;11.284;2023-09-07T05:51:48;8.60;;;3.60;;
5191;SDS011;2615;44.524;11.284;2023-09-07T05:54:17;5.30;;;3.57;;
5191;SDS011;2615;44.524;11.284;2023-09-07T05:56:45;6.60;;;3.60;;
5191;SDS011;2615;44.524;11.284;2023-09-07T05:59:14;7.17;;;3.60;;
5191;SDS011;2615;44.524;11.284;2023-09-07T06:01:42;7.30;;;3.50;;
5191;SDS011;2615;44.524;11.284;2023-09-07T06:04:10;5.10;;;3.27;;
5191;SDS011;2615;44.524;11.284;2023-09-07T06:06:39;5.77;;;2.73;;
5191;SDS011;2615;44.524;11.284;2023-09-07T06:09:07;5.13;;;3.30;;
5191;SDS011;2615;44.524;11.284;2023-09-07T06:11:35;4.37;;;3.30;;
5191;SDS011;2615;44.524;11.284;2023-09-07T06:14:03;4.30;;;2.67;;
5191;SDS011;2615;44.524;11.284;2023-09-07T06:16:33;4.77;;;2.83;;
5191;SDS011;2615;44.524;11.284;2023-09-07T06:19:01;5.23;;;3.07;;
5191;SDS011;2615;44.524;11.284;2023-09-07T06:21:29;5.03;;;3.33;;
5191;SDS011;2615;44.524;11.284;2023-09-07T06:23:57;6.23;;;3.30;;
5191;SDS011;2615;44.524;11.284;2023-09-07T06:26:25;3.90;;;2.43;;
5191;SDS011;2615;44.524;11.284;2023-09-07T06:28:53;3.43;;;2.10;;
5191;SDS011;2615;44.524;11.284;2023-09-07T06:31:22;5.57;;;3.10;;
5191;SDS011;2615;44.524;11.284;2023-09-07T06:33:51;4.77;;;3.47;;
5191;SDS011;2615;44.524;11.284;2023-09-07T06:36:19;5.20;;;2.87;;
5191;SDS011;2615;44.524;11.284;2023-09-07T06:39:06;5.20;;;3.20;;
5191;SDS011;2615;44.524;11.284;2023-09-07T06:41:35;4.63;;;3.33;;
5191;SDS011;2615;44.524;11.284;2023-09-07T06:44:03;5.03;;;3.17;;
5191;SDS011;2615;44.524;11.284;2023-09-07T06:46:31;7.00;;;4.20;;
5191;SDS011;2615;44.524;11.284;2023-09-07T06:49:01;6.30;;;4.07;;
5191;SDS011;2615;44.524;11.284;2023-09-07T06:51:30;5.60;;;4.17;;
5191;SDS011;2615;44.524;11.284;2023-09-07T06:53:58;5.83;;;4.37;;
5191;SDS011;2615;44.524;11.284;2023-09-07T06:56:26;7.10;;;4.97;;
5191;SDS011;2615;44.524;11.284;2023-09-07T06:58:56;7.00;;;4.27;;
5191;SDS011;2615;44.524;11.284;2023-09-07T07:01:24;9.87;;;4.20;;
5191;SDS011;2615;44.524;11.284;2023-09-07T07:03:52;9.10;;;4.70;;
5191;SDS011;2615;44.524;11.284;2023-09-07T07:06:22;6.10;;;4.20;;
5191;SDS011;2615;44.524;11.284;2023-09-07T07:08:51;10.33;;;4.30;;
5191;SDS011;2615;44.524;11.284;2023-09-07T07:11:19;5.50;;;3.67;;
5191;SDS011;2615;44.524;11.284;2023-09-07T07:13:47;6.33;;;4.10;;
5191;SDS011;2615;44.524;11.284;2023-09-07T07:16:16;5.20;;;3.17;;
5191;SDS011;2615;44.524;11.284;2023-09-07T07:18:44;9.50;;;4.07;;
5191;SDS011;2615;44.524;11.284;2023-09-07T07:21:12;5.43;;;3.90;;
5191;SDS011;2615;44.524;11.284;2023-09-07T07:23:43;5.57;;;3.60;;
5191;SDS011;2615;44.524;11.284;2023-09-07T07:26:11;5.63;;;4.10;;
5191;SDS011;2615;44.524;11.284;2023-09-07T07:28:39;7.87;;;4.77;;
5191;SDS011;2615;44.524;11.284;2023-09-07T07:31:07;7.00;;;3.70;;
5191;SDS011;2615;44.524;11.284;2023-09-07T07:33:36;7.43;;;3.93;;
5191;SDS011;2615;44.524;11.284;2023-09-07T07:36:04;7.60;;;4.43;;
5191;SDS011;2615;44.524;11.284;2023-09-07T07:38:33;7.87;;;4.60;;
5191;SDS011;2615;44.524;11.284;2023-09-07T07:41:03;5.80;;;3.90;;
5191;SDS011;2615;44.524;11.284;2023-09-07T07:43:32;7.73;;;3.80;;
5191;SDS011;2615;44.524;11.284;2023-09-07T07:46:01;7.27;;;4.37;;
5191;SDS011;2615;44.524;11.284;2023-09-07T07:48:29;6.13;;;3.60;;
5191;SDS011;2615;44.524;11.284;2023-09-07T07:51:01;6.87;;;4.47;;
5191;SDS011;2615;44.524;11.284;2023-09-07T07:53:30;6.60;;;4.27;;
5191;SDS011;2615;44.524;11.284;2023-09-07T07:55:59;9.37;;;5.27;;
5191;SDS011;2615;44.524;11.284;2023-09-07T07:58:28;6.73;;;4.83;;
5191;SDS011;2615;44.524;11.284;2023-09-07T08:00:57;6.40;;;4.93;;
5191;SDS011;2615;44.524;11.284;2023-09-07T08:03:25;7.23;;;3.90;;
5191;SDS011;2615;44.524;11.284;2023-09-07T08:05:53;10.27;;;6.03;;
5191;SDS011;2615;44.524;11.284;2023-09-07T08:08:22;7.20;;;5.13;;
5191;SDS011;2615;44.524;11.284;2023-09-07T08:10:50;6.23;;;4.13;;
5191;SDS011;2615;44.524;11.284;2023-09-07T08:13:18;7.33;;;4.80;;
5191;SDS011;2615;44.524;11.284;2023-09-07T08:15:48;8.47;;;6.83;;
5191;SDS011;2615;44.524;11.284;2023-09-07T08:18:16;5.63;;;4.20;;
5191;SDS011;2615;44.524;11.284;2023-09-07T08:20:45;6.57;;;4.17;;
5191;SDS011;2615;44.524;11.284;2023-09-07T08:23:13;6.50;;;4.50;;
5191;SDS011;2615;44.524;11.284;2023-09-07T08:25:41;4.57;;;3.50;;
5191;SDS011;2615;44.524;11.284;2023-09-07T08:28:13;5.77;;;3.53;;
5191;SDS011;2615;44.524;11.284;2023-09-07T08:30:42;6.80;;;3.50;;
5191;SDS011;2615;44.524;11.284;2023-09-07T08:33:11;4.10;;;3.23;;
5191;SDS011;2615;44.524;11.284;2023-09-07T08:35:40;6.10;;;4.20;;
5191;SDS011;2615;44.524;11.284;2023-09-07T08:38:10;4.77;;;2.90;;
5191;SDS011;2615;44.524;11.284;2023-09-07T08:40:39;5.60;;;3.40;;
5191;SDS011;2615;44.524;11.284;2023-09-07T08:43:08;5.33;;;3.50;;
5191;SDS011;2615;44.524;11.284;2023-09-07T08:45:41;6.30;;;4.27;;
5191;SDS011;2615;44.524;11.284;2023-09-07T08:48:15;4.70;;;3.50;;
5191;SDS011;2615;44.524;11.284;2023-09-07T08:50:47;8.10;;;4.40;;
5191;SDS011;2615;44.524;11.284;2023-09-07T08:53:18;6.77;;;3.73;;
5191;SDS011;2615;44.524;11.284;2023-09-07T08:55:47;6.40;;;4.20;;
5191;SDS011;2615;44.524;11.284;2023-09-07T08:58:16;4.73;;;3.83;;
5191;SDS011;2615;44.524;11.284;2023-09-07T09:00:44;5.40;;;3.53;;
5191;SDS011;2615;44.524;11.284;2023-09-07T09:03:12;5.37;;;3.60;;
5191;SDS011;2615;44.524;11.284;2023-09-07T09:05:42;5.23;;;3.53;;
5191;SDS011;2615;44.524;11.284;2023-09-07T09:08:12;5.67;;;2.80;;
5191;SDS011;2615;44.524;11.284;2023-09-07T09:10:40;7.07;;;3.90;;
5191;SDS011;2615;44.524;11.284;2023-09-07T09:13:08;6.00;;;3.90;;
5191;SDS011;2615;44.524;11.284;2023-09-07T09:15:37;4.50;;;2.93;;
5191;SDS011;2615;44.524;11.284;2023-09-07T09:18:09;5.10;;;3.30;;
5191;SDS011;2615;44.524;11.284;2023-09-07T09:20:39;5.33;;;3.57;;
5191;SDS011;2615;44.524;11.284;2023-09-07T09:23:08;5.00;;;3.63;;
5191;SDS011;2615;44.524;11.284;2023-09-07T09:25:40;5.60;;;3.77;;
5191;SDS011;2615;44.524;11.284;2023-09-07T09:28:08;7.07;;;3.93;;
5191;SDS011;2615;44.524;11.284;2023-09-07T09:30:37;9.33;;;3.13;;
5191;SDS011;2615;44.524;11.284;2023-09-07T09:33:05;5.23;;;3.80;;
5191;SDS011;2615;44.524;11.284;2023-09-07T09:35:37;5.10;;;3.00;;
5191;SDS011;2615;44.524;11.284;2023-09-07T09:38:05;4.20;;;3.33;;
5191;SDS011;2615;44.524;11.284;2023-09-07T09:40:35;5.80;;;2.63;;
5191;SDS011;2615;44.524;11.284;2023-09-07T09:43:04;5.20;;;3.27;;
5191;SDS011;2615;44.524;11.284;2023-09-07T09:45:33;3.77;;;2.60;;
5191;SDS011;2615;44.524;11.284;2023-09-07T09:48:02;5.10;;;3.53;;
5191;SDS011;2615;44.524;11.284;2023-09-07T09:50:32;5.77;;;2.87;;
5191;SDS011;2615;44.524;11.284;2023-09-07T09:53:05;4.10;;;2.90;;
5191;SDS011;2615;44.524;11.284;2023-09-07T09:55:35;4.47;;;3.10;;
5191;SDS011;2615;44.524;11.284;2023-09-07T09:58:05;6.40;;;3.80;;
5191;SDS011;2615;44.524;11.284;2023-09-07T10:00:33;17.13;;;3.53;;
5191;SDS011;2615;44.524;11.284;2023-09-07T10:03:05;4.17;;;3.20;;
5191;SDS011;2615;44.524;11.284;2023-09-07T10:05:38;11.67;;;4.20;;
5191;SDS011;2615;44.524;11.284;2023-09-07T10:08:08;4.40;;;3.03;;
5191;SDS011;2615;44.524;11.284;2023-09-07T10:10:42;4.13;;;2.40;;
5191;SDS011;2615;44.524;11.284;2023-09-07T10:13:13;6.37;;;3.30;;
5191;SDS011;2615;44.524;11.284;2023-09-07T10:15:42;4.93;;;3.20;;
5191;SDS011;2615;44.524;11.284;2023-09-07T10:18:12;4.70;;;3.13;;
5191;SDS011;2615;44.524;11.284;2023-09-07T10:20:51;3.77;;;2.97;;
5191;SDS011;2615;44.524;11.284;2023-09-07T10:23:22;6.57;;;3.90;;
5191;SDS011;2615;44.524;11.284;2023-09-07T10:25:52;3.60;;;2.63;;
5191;SDS011;2615;44.524;11.284;2023-09-07T10:28:22;4.67;;;2.93;;
5191;SDS011;2615;44.524;11.284;2023-09-07T10:31:01;4.03;;;2.90;;
5191;SDS011;2615;44.524;11.284;2023-09-07T10:33:33;4.97;;;3.20;;
5191;SDS011;2615;44.524;11.284;2023-09-07T10:36:03;6.60;;;2.87;;
5191;SDS011;2615;44.524;11.284;2023-09-07T10:38:32;4.80;;;3.10;;
5191;SDS011;2615;44.524;11.284;2023-09-07T10:41:03;4.63;;;2.67;;
5191;SDS011;2615;44.524;11.284;2023-09-07T10:43:32;5.60;;;3.10;;
5191;SDS011;2615;44.524;11.284;2023-09-07T10:46:01;2.90;;;2.00;;
5191;SDS011;2615;44.524;11.284;2023-09-07T10:48:30;3.70;;;2.67;;
5191;SDS011;2615;44.524;11.284;2023-09-07T10:50:59;3.83;;;2.97;;
5191;SDS011;2615;44.524;11.284;2023-09-07T10:53:29;4.60;;;2.70;;
5191;SDS011;2615;44.524;11.284;2023-09-07T10:55:58;3.97;;;2.50;;
5191;SDS011;2615;44.524;11.284;2023-09-07T10:58:31;3.03;;;2.20;;
5191;SDS011;2615;44.524;11.284;2023-09-07T11:01:01;4.10;;;2.70;;
5191;SDS011;2615;44.524;11.284;2023-09-07T11:03:29;3.93;;;2.70;;
5191;SDS011;2615;44.524;11.284;2023-09-07T11:05:59;3.33;;;2.83;;
5191;SDS011;2615;44.524;11.284;2023-09-07T11:08:29;6.40;;;3.27;;
5191;SDS011;2615;44.524;11.284;2023-09-07T11:10:59;3.73;;;2.70;;
5191;SDS011;2615;44.524;11.284;2023-09-07T11:13:28;4.03;;;2.40;;
5191;SDS011;2615;44.524;11.284;2023-09-07T11:15:59;4.10;;;2.67;;
5191;SDS011;2615;44.524;11.284;2023-09-07T11:18:28;4.93;;;2.33;;
5191;SDS011;2615;44.524;11.284;2023-09-07T11:20:57;4.03;;;2.33;;
5191;SDS011;2615;44.524;11.284;2023-09-07T11:23:26;3.10;;;2.17;;
5191;SDS011;2615;44.524;11.284;2023-09-07T11:25:55;6.33;;;3.00;;
5191;SDS011;2615;44.524;11.284;2023-09-07T11:28:24;3.57;;;2.10;;
5191;SDS011;2615;44.524;11.284;2023-09-07T11:30:52;3.97;;;2.60;;
5191;SDS011;2615;44.524;11.284;2023-09-07T11:33:23;3.20;;;2.10;;
5191;SDS011;2615;44.524;11.284;2023-09-07T11:35:51;3.20;;;2.20;;
5191;SDS011;2615;44.524;11.284;2023-09-07T11:38:21;3.30;;;2.40;;
5191;SDS011;2615;44.524;11.284;2023-09-07T11:40:49;4.30;;;2.40;;
5191;SDS011;2615;44.524;11.284;2023-09-07T11:43:17;4.30;;;2.97;;
5191;SDS011;2615;44.524;11.284;2023-09-07T11:45:46;5.10;;;2.90;;
5191;SDS011;2615;44.524;11.284;2023-09-07T11:48:15;4.67;;;2.80;;
5191;SDS011;2615;44.524;11.284;2023-09-07T11:50:44;4.07;;;2.47;;
5191;SDS011;2615;44.524;11.284;2023-09-07T11:53:12;4.50;;;2.83;;
5191;SDS011;2615;44.524;11.284;2023-09-07T11:55:40;3.90;;;2.90;;
5191;SDS011;2615;44.524;11.284;2023-09-07T11:58:09;7.00;;;3.00;;
5191;SDS011;2615;44.524;11.284;2023-09-07T12:00:38;4.07;;;2.50;;
5191;SDS011;2615;44.524;11.284;2023-09-07T12:03:08;4.70;;;2.80;;
5191;SDS011;2615;44.524;11.284;2023-09-07T12:05:36;4.47;;;2.33;;
5191;SDS011;2615;44.524;11.284;2023-09-07T12:08:07;6.83;;;2.80;;
5191;SDS011;2615;44.524;11.284;2023-09-07T12:10:35;2.87;;;2.13;;
5191;SDS011;2615;44.524;11.284;2023-09-07T12:13:04;6.10;;;3.13;;
5191;SDS011;2615;44.524;11.284;2023-09-07T12:15:32;3.90;;;2.80;;
5191;SDS011;2615;44.524;11.284;2023-09-07T12:18:01;5.73;;;2.63;;
5191;SDS011;2615;44.524;11.284;2023-09-07T12:20:30;3.40;;;2.57;;
5191;SDS011;2615;44.524;11.284;2023-09-07T12:22:58;3.50;;;2.60;;
5191;SDS011;2615;44.524;11.284;2023-09-07T12:25:28;3.57;;;2.70;;
5191;SDS011;2615;44.524;11.284;2023-09-07T12:27:56;2.90;;;2.27;;
5191;SDS011;2615;44.524;11.284;2023-09-07T12:30:24;3.47;;;2.20;;
5191;SDS011;2615;44.524;11.284;2023-09-07T12:32:53;2.93;;;1.90;;
5191;SDS011;2615;44.524;11.284;2023-09-07T12:35:21;4.23;;;2.87;;
5191;SDS011;2615;44.524;11.284;2023-09-07T12:37:49;3.73;;;2.67;;
5191;SDS011;2615;44.524;11.284;2023-09-07T12:40:18;4.30;;;2.60;;
5191;SDS011;2615;44.524;11.284;2023-09-07T12:42:48;3.40;;;2.20;;
5191;SDS011;2615;44.524;11.284;2023-09-07T12:45:16;3.23;;;2.23;;
5191;SDS011;2615;44.524;11.284;2023-09-07T12:47:44;3.63;;;1.83;;
5191;SDS011;2615;44.524;11.284;2023-09-07T12:50:12;3.17;;;2.07;;
5191;SDS011;2615;44.524;11.284;2023-09-07T12:52:40;4.47;;;2.20;;
5191;SDS011;2615;44.524;11.284;2023-09-07T12:55:09;3.23;;;2.07;;
5191;SDS011;2615;44.524;11.284;2023-09-07T12:57:37;3.27;;;2.30;;
5191;SDS011;2615;44.524;11.284;2023-09-07T13:00:09;3.90;;;2.57;;
5191;SDS011;2615;44.524;11.284;2023-09-07T13:02:38;2.87;;;1.97;;
5191;SDS011;2615;44.524;11.284;2023-09-07T13:05:06;3.83;;;2.43;;
5191;SDS011;2615;44.524;11.284;2023-09-07T13:07:35;3.47;;;2.53;;
5191;SDS011;2615;44.524;11.284;2023-09-07T13:10:04;4.47;;;3.03;;
5191;SDS011;2615;44.524;11.284;2023-09-07T13:12:33;3.40;;;2.40;;
5191;SDS011;2615;44.524;11.284;2023-09-07T13:15:01;2.60;;;1.87;;
5191;SDS011;2615;44.524;11.284;2023-09-07T13:17:31;3.50;;;2.40;;
5191;SDS011;2615;44.524;11.284;2023-09-07T13:19:59;3.87;;;2.47;;
5191;SDS011;2615;44.524;11.284;2023-09-07T13:22:27;3.90;;;2.30;;
5191;SDS011;2615;44.524;11.284;2023-09-07T13:24:56;3.97;;;2.23;;
5191;SDS011;2615;44.524;11.284;2023-09-07T13:27:24;4.10;;;2.20;;
5191;SDS011;2615;44.524;11.284;2023-09-07T13:29:52;3.60;;;2.40;;
5191;SDS011;2615;44.524;11.284;2023-09-07T13:32:21;3.80;;;2.60;;
5191;SDS011;2615;44.524;11.284;2023-09-07T13:34:50;3.73;;;2.30;;
5191;SDS011;2615;44.524;11.284;2023-09-07T13:37:18;3.83;;;2.63;;
5191;SDS011;2615;44.524;11.284;2023-09-07T13:39:46;3.37;;;2.40;;
5191;SDS011;2615;44.524;11.284;2023-09-07T13:42:15;3.80;;;2.60;;
5191;SDS011;2615;44.524;11.284;2023-09-07T13:44:43;4.30;;;2.30;;
5191;SDS011;2615;44.524;11.284;2023-09-07T13:47:11;3.50;;;2.23;;
5191;SDS011;2615;44.524;11.284;2023-09-07T13:49:40;4.03;;;2.40;;
5191;SDS011;2615;44.524;11.284;2023-09-07T13:52:09;3.93;;;2.67;;
5191;SDS011;2615;44.524;11.284;2023-09-07T13:54:38;2.73;;;1.73;;
5191;SDS011;2615;44.524;11.284;2023-09-07T13:57:06;3.73;;;2.07;;
5191;SDS011;2615;44.524;11.284;2023-09-07T13:59:34;3.30;;;2.17;;
5191;SDS011;2615;44.524;11.284;2023-09-07T14:02:03;3.40;;;2.33;;
5191;SDS011;2615;44.524;11.284;2023-09-07T14:04:31;3.20;;;2.30;;
5191;SDS011;2615;44.524;11.284;2023-09-07T14:06:59;3.40;;;2.37;;
5191;SDS011;2615;44.524;11.284;2023-09-07T14:09:28;3.60;;;2.57;;
5191;SDS011;2615;44.524;11.284;2023-09-07T14:11:57;3.03;;;2.10;;
5191;SDS011;2615;44.524;11.284;2023-09-07T14:14:25;3.67;;;2.03;;
5191;SDS011;2615;44.524;11.284;2023-09-07T14:16:53;3.80;;;1.93;;
5191;SDS011;2615;44.524;11.284;2023-09-07T14:19:24;3.10;;;1.80;;
5191;SDS011;2615;44.524;11.284;2023-09-07T14:21:53;3.13;;;1.93;;
5191;SDS011;2615;44.524;11.284;2023-09-07T14:24:21;3.30;;;2.27;;
5191;SDS011;2615;44.524;11.284;2023-09-07T14:26:51;4.27;;;3.10;;
5191;SDS011;2615;44.524;11.284;2023-09-07T14:29:19;2.90;;;2.00;;
5191;SDS011;2615;44.524;11.284;2023-09-07T14:31:47;3.47;;;2.63;;
5191;SDS011;2615;44.524;11.284;2023-09-07T14:34:16;4.30;;;2.83;;
5191;SDS011;2615;44.524;11.284;2023-09-07T14:36:44;8.00;;;2.77;;
5191;SDS011;2615;44.524;11.284;2023-09-07T14:39:12;3.50;;;2.20;;
5191;SDS011;2615;44.524;11.284;2023-09-07T14:41:40;4.60;;;2.37;;
5191;SDS011;2615;44.524;11.284;2023-09-07T14:44:11;3.30;;;2.10;;
5191;SDS011;2615;44.524;11.284;2023-09-07T14:46:39;3.07;;;2.27;;
5191;SDS011;2615;44.524;11.284;2023-09-07T14:49:07;3.70;;;3.00;;
5191;SDS011;2615;44.524;11.284;2023-09-07T14:51:39;5.40;;;2.63;;
5191;SDS011;2615;44.524;11.284;2023-09-07T14:54:15;3.90;;;2.57;;
5191;SDS011;2615;44.524;11.284;2023-09-07T14:56:44;5.73;;;2.60;;
5191;SDS011;2615;44.524;11.284;2023-09-07T14:59:13;4.50;;;3.27;;
5191;SDS011;2615;44.524;11.284;2023-09-07T15:01:42;3.57;;;2.60;;
5191;SDS011;2615;44.524;11.284;2023-09-07T15:04:16;5.60;;;2.73;;
5191;SDS011;2615;44.524;11.284;2023-09-07T15:06:44;3.20;;;2.50;;
5191;SDS011;2615;44.524;11.284;2023-09-07T15:09:12;3.17;;;2.60;;
5191;SDS011;2615;44.524;11.284;2023-09-07T15:11:40;4.17;;;2.97;;